Time;durP1;ratioP1;P1;durP2;ratioP2;P2;SDS_P1;SDS_P2;PMS_P1;PMS_P2;Temp;Humidity;BMP_temperature;BMP_pressure;BME280_temperature;BME280_humidity;BME280_pressure;Samples;Min_cycle;Max_cycle;Signal;HPM_P1;HPM_P2
2023/05/22 00:02:05;;;;;;;25.08;19.38;;;;;;;15.14;89.67;101398.09;6132505;23;20013;-76
2023/05/22 00:04:31;;;;;;;24.70;19.80;;;;;;;15.12;90.00;101404.31;6108261;23;20431;-76
2023/05/22 00:06:56;;;;;;;24.83;20.33;;;;;;;15.10;90.27;101406.97;6131683;23;20071;-78
2023/05/22 00:09:25;;;;;;;26.98;20.35;;;;;;;15.06;90.66;101413.22;6108030;23;20052;-78
2023/05/22 00:11:50;;;;;;;24.85;20.00;;;;;;;15.08;89.29;101419.31;6156289;23;20016;-78
2023/05/22 00:14:16;;;;;;;26.55;20.15;;;;;;;15.01;90.50;101415.09;6132402;23;20036;-76
2023/05/22 00:16:41;;;;;;;26.85;20.25;;;;;;;14.98;90.89;101417.78;6134709;23;20420;-78
2023/05/22 00:19:12;;;;;;;27.13;20.60;;;;;;;15.02;89.64;101407.13;6109660;23;20013;-76
2023/05/22 00:21:40;;;;;;;29.00;21.17;;;;;;;14.99;91.18;101416.91;6158150;23;20001;-75
2023/05/22 00:24:06;;;;;;;30.27;20.95;;;;;;;15.01;90.27;101404.53;6109002;23;20009;-76
2023/05/22 00:26:31;;;;;;;30.63;22.02;;;;;;;14.93;91.43;101403.81;6108464;23;20163;-76
2023/05/22 00:28:56;;;;;;;27.40;21.05;;;;;;;14.90;91.74;101397.72;6109062;23;20013;-74
2023/05/22 00:31:22;;;;;;;26.45;21.45;;;;;;;14.87;92.49;101399.56;6109765;23;20015;-75
2023/05/22 00:33:48;;;;;;;26.63;21.85;;;;;;;14.84;92.86;101395.22;6156941;23;20001;-75
2023/05/22 00:36:14;;;;;;;31.17;20.88;;;;;;;14.80;93.26;101400.59;6157777;23;20012;-75
2023/05/22 00:38:39;;;;;;;28.25;22.13;;;;;;;14.76;93.52;101405.03;6109173;23;20316;-75
2023/05/22 00:41:05;;;;;;;29.80;21.42;;;;;;;14.71;93.94;101398.97;6108634;23;20013;-76
2023/05/22 00:43:32;;;;;;;30.80;20.60;;;;;;;14.65;93.88;101399.09;6157823;23;20005;-75
2023/05/22 00:45:57;;;;;;;29.73;21.75;;;;;;;14.65;94.01;101396.47;6158123;23;20578;-76
2023/05/22 00:48:24;;;;;;;26.95;22.05;;;;;;;14.66;94.51;101406.13;6109053;23;20027;-74
2023/05/22 00:50:51;;;;;;;29.40;21.70;;;;;;;14.58;95.29;101402.72;6157204;23;20280;-75
2023/05/22 00:53:20;;;;;;;31.73;21.90;;;;;;;14.53;94.84;101395.78;6157246;23;20338;-75
2023/05/22 00:55:46;;;;;;;29.55;23.08;;;;;;;14.52;95.06;101396.69;6132640;23;20035;-76
2023/05/22 00:58:16;;;;;;;29.42;22.35;;;;;;;14.53;95.38;101392.28;6156959;23;20398;-76
2023/05/22 01:00:43;;;;;;;27.15;22.55;;;;;;;14.53;95.16;101393.13;6132885;23;20021;-75
2023/05/22 01:03:09;;;;;;;33.33;23.35;;;;;;;14.53;95.26;101381.72;6131952;23;20009;-76
2023/05/22 01:05:36;;;;;;;31.02;22.95;;;;;;;14.47;96.32;101390.63;6156974;23;20059;-76
2023/05/22 01:08:02;;;;;;;29.73;23.67;;;;;;;14.44;96.28;101388.06;6131683;23;20016;-76
2023/05/22 01:10:29;;;;;;;29.33;24.23;;;;;;;14.43;96.51;101381.03;6131936;23;20092;-75
2023/05/22 01:13:03;;;;;;;29.13;22.35;;;;;;;14.44;96.48;101387.16;6083332;23;20053;-76
2023/05/22 01:15:42;;;;;;;29.67;22.42;;;;;;;14.44;96.06;101374.88;6126742;23;20015;-76
2023/05/22 01:18:19;;;;;;;30.13;23.05;;;;;;;14.40;96.98;101375.81;6127832;23;20002;-76
2023/05/22 01:21:22;;;;;;;28.58;23.45;;;;;;;14.44;96.00;101377.50;6127181;23;20035;-76
2023/05/22 01:24:26;;;;;;;32.92;23.83;;;;;;;14.45;95.52;101384.53;6127052;23;20096;-75
2023/05/22 01:27:04;;;;;;;30.65;22.65;;;;;;;14.39;96.17;101384.63;6055560;23;20010;-76
2023/05/22 01:29:47;;;;;;;31.35;24.30;;;;;;;14.37;95.95;101376.75;6127997;23;20009;-76
2023/05/22 01:32:16;;;;;;;31.65;23.23;;;;;;;14.41;95.74;101377.56;6128297;23;20084;-76
2023/05/22 01:34:45;;;;;;;28.75;22.55;;;;;;;14.43;95.53;101378.41;6128005;23;20339;-76
2023/05/22 01:37:12;;;;;;;30.00;23.52;;;;;;;14.43;96.30;101382.81;6126871;23;20403;-76
2023/05/22 01:39:39;;;;;;;29.13;23.08;;;;;;;14.49;95.49;101377.41;6126343;23;20010;-76
2023/05/22 01:42:05;;;;;;;33.55;23.42;;;;;;;14.49;95.90;101386.19;6103550;23;20124;-76
2023/05/22 01:44:30;;;;;;;31.10;23.02;;;;;;;14.50;94.66;101380.00;6079972;23;20093;-76
2023/05/22 01:46:59;;;;;;;30.13;23.05;;;;;;;14.49;95.34;101375.63;6079717;23;20020;-76
2023/05/22 01:49:26;;;;;;;27.02;22.92;;;;;;;14.48;95.37;101381.81;6104115;23;20032;-76
2023/05/22 01:51:57;;;;;;;30.75;21.25;;;;;;;14.46;95.38;101370.41;6102975;23;20092;-75
2023/05/22 01:55:05;;;;;;;32.80;22.70;;;;;;;14.47;95.55;101371.31;6126025;23;20339;-76
2023/05/22 01:57:40;;;;;;;26.92;21.77;;;;;;;14.46;95.65;101380.09;5982993;23;20007;-76
2023/05/22 02:00:14;;;;;;;28.95;23.52;;;;;;;14.45;95.12;101378.38;6113017;23;20016;-76
2023/05/22 02:02:43;;;;;;;24.63;21.23;;;;;;;14.46;94.62;101375.69;6127547;23;22253;-76
2023/05/22 02:05:11;;;;;;;30.45;21.90;;;;;;;14.45;94.91;101373.97;6125857;23;20009;-76
2023/05/22 02:07:39;;;;;;;26.38;21.08;;;;;;;14.39;94.16;101374.06;6102754;23;20024;-76
2023/05/22 02:10:07;;;;;;;29.77;21.98;;;;;;;14.32;94.60;101370.72;6101640;23;20021;-76
2023/05/22 02:12:33;;;;;;;31.27;21.33;;;;;;;14.34;94.30;101374.16;6126178;23;20017;-76
2023/05/22 02:14:59;;;;;;;27.25;21.30;;;;;;;14.33;94.02;101374.19;6156282;23;20005;-76
2023/05/22 02:17:25;;;;;;;27.42;21.23;;;;;;;14.32;93.87;101377.72;6108912;23;20088;-76
2023/05/22 02:19:50;;;;;;;30.58;22.23;;;;;;;14.30;94.24;101369.84;6132714;23;20547;-76
2023/05/22 02:22:16;;;;;;;25.30;21.73;;;;;;;14.31;93.82;101368.06;6131974;23;20013;-76
2023/05/22 02:24:45;;;;;;;28.50;21.90;;;;;;;14.21;93.56;101368.25;6131268;23;20032;-76
2023/05/22 02:27:11;;;;;;;28.90;22.67;;;;;;;14.18;93.65;101359.56;6184093;23;20012;-76
2023/05/22 02:29:37;;;;;;;27.17;22.00;;;;;;;14.20;93.53;101358.59;6132232;23;20424;-76
2023/05/22 02:32:03;;;;;;;30.55;21.13;;;;;;;14.18;93.42;101368.31;6133023;23;20013;-77
2023/05/22 02:34:30;;;;;;;28.02;21.27;;;;;;;14.14;93.38;101357.88;6156108;23;20336;-77
2023/05/22 02:36:58;;;;;;;29.50;21.50;;;;;;;14.13;92.99;101359.63;6108117;23;20162;-76
2023/05/22 02:39:26;;;;;;;29.75;23.10;;;;;;;14.10;93.46;101362.31;6132049;23;20009;-76
2023/05/22 02:41:51;;;;;;;32.42;24.25;;;;;;;14.07;95.05;101354.47;6106836;23;20032;-76
2023/05/22 02:44:16;;;;;;;29.63;23.05;;;;;;;14.06;93.65;101350.06;6157226;23;20013;-77
2023/05/22 02:46:42;;;;;;;32.78;23.50;;;;;;;14.05;94.54;101351.00;6107985;23;20435;-77
2023/05/22 02:49:08;;;;;;;31.42;23.15;;;;;;;14.00;94.44;101350.19;6131447;23;20092;-76
2023/05/22 02:51:33;;;;;;;28.48;22.58;;;;;;;13.98;94.28;101344.09;6107804;23;20032;-77
2023/05/22 02:53:58;;;;;;;26.83;22.33;;;;;;;13.95;94.56;101341.50;6107995;23;20012;-76
2023/05/22 02:56:26;;;;;;;31.13;23.65;;;;;;;13.84;95.04;101339.91;6106472;23;20012;-76
2023/05/22 02:58:52;;;;;;;32.47;23.17;;;;;;;13.86;95.00;101343.41;6109245;23;20013;-76
2023/05/22 03:01:17;;;;;;;33.42;24.48;;;;;;;13.89;94.80;101333.72;6156480;23;20454;-76
2023/05/22 03:03:42;;;;;;;34.97;25.55;;;;;;;13.88;95.74;101335.50;6107976;23;20013;-74
2023/05/22 03:06:09;;;;;;;31.55;24.98;;;;;;;13.82;96.02;101338.22;6106741;23;20024;-76
2023/05/22 03:08:40;;;;;;;32.55;25.50;;;;;;;13.77;96.77;101343.56;6131744;23;20391;-76
2023/05/22 03:11:05;;;;;;;32.05;25.60;;;;;;;13.77;96.10;101337.44;6131267;23;20025;-75
2023/05/22 03:13:31;;;;;;;34.65;25.10;;;;;;;13.76;95.78;101335.69;6132567;23;20036;-76
2023/05/22 03:15:58;;;;;;;34.78;25.65;;;;;;;13.79;96.39;101336.53;6132152;23;20021;-76
2023/05/22 03:18:25;;;;;;;32.50;24.75;;;;;;;13.72;96.63;101334.00;6109109;23;20017;-76
2023/05/22 03:20:50;;;;;;;31.70;24.98;;;;;;;13.71;96.10;101327.88;6130453;23;20008;-76
2023/05/22 03:23:16;;;;;;;35.70;27.70;;;;;;;13.71;96.64;101335.78;6108040;23;20320;-76
2023/05/22 03:25:42;;;;;;;31.80;25.25;;;;;;;13.71;96.42;101335.78;6132632;23;20005;-76
2023/05/22 03:28:08;;;;;;;35.05;27.13;;;;;;;13.68;96.03;101330.56;6132658;23;20092;-76
2023/05/22 03:30:33;;;;;;;37.40;27.15;;;;;;;13.61;97.19;101332.41;6131644;23;20035;-76
2023/05/22 03:32:59;;;;;;;36.85;26.63;;;;;;;13.58;96.69;101336.88;6107197;23;20450;-77
2023/05/22 03:35:25;;;;;;;32.10;26.05;;;;;;;13.60;96.12;101335.06;6131993;23;20013;-76
2023/05/22 03:37:51;;;;;;;35.15;26.75;;;;;;;13.58;96.06;101337.75;6132523;23;20023;-76
2023/05/22 03:40:16;;;;;;;31.15;26.63;;;;;;;13.55;95.75;101336.91;6156498;23;20423;-76
2023/05/22 03:42:41;;;;;;;39.70;27.45;;;;;;;13.54;96.38;101330.78;6131519;23;20009;-77
2023/05/22 03:45:07;;;;;;;35.17;26.58;;;;;;;13.55;95.31;101331.63;6132715;23;20036;-76
2023/05/22 03:47:33;;;;;;;34.65;26.75;;;;;;;13.52;95.76;101328.19;6132512;23;20384;-76
2023/05/22 03:49:58;;;;;;;39.70;27.38;;;;;;;13.51;95.80;101328.19;6132340;23;20108;-76
2023/05/22 03:52:24;;;;;;;34.22;27.42;;;;;;;13.44;96.52;101321.28;6106940;23;20005;-76
2023/05/22 03:54:49;;;;;;;36.50;29.02;;;;;;;13.43;96.63;101333.59;6130107;23;20436;-76
2023/05/22 03:57:15;;;;;;;35.03;28.60;;;;;;;13.38;97.02;101337.19;6157315;23;20075;-77
2023/05/22 03:59:40;;;;;;;36.03;29.17;;;;;;;13.35;97.43;101322.31;6132203;23;20005;-76
2023/05/22 04:02:06;;;;;;;36.92;28.48;;;;;;;13.27;97.35;101325.00;6131063;23;20016;-77
2023/05/22 04:04:32;;;;;;;35.30;28.70;;;;;;;13.31;97.14;101328.47;6131249;23;20140;-76
2023/05/22 04:06:58;;;;;;;35.17;30.42;;;;;;;13.31;97.45;101333.75;6156298;23;20013;-76
2023/05/22 04:09:30;;;;;;;39.28;31.88;;;;;;;13.33;97.45;101331.94;6131086;23;20033;-76
2023/05/22 04:11:55;;;;;;;39.50;28.85;;;;;;;13.34;96.94;101331.94;6154224;23;20500;-76
2023/05/22 04:14:21;;;;;;;41.40;31.40;;;;;;;13.33;97.21;101337.22;6131523;23;20005;-76
2023/05/22 04:16:46;;;;;;;40.78;31.83;;;;;;;13.34;96.95;101337.22;6131492;23;20013;-76
2023/05/22 04:19:12;;;;;;;41.92;30.83;;;;;;;13.36;96.72;101342.50;6131300;23;20041;-76
2023/05/22 04:21:38;;;;;;;36.85;30.67;;;;;;;13.39;96.84;101350.34;6130491;23;20005;-76
2023/05/22 04:24:05;;;;;;;38.28;32.22;;;;;;;13.39;96.46;101339.81;6107738;23;20012;-77
2023/05/22 04:26:35;;;;;;;41.75;32.47;;;;;;;13.43;96.98;101343.25;6153828;23;20028;-76
2023/05/22 04:29:01;;;;;;;40.08;32.40;;;;;;;13.44;96.69;101337.09;6132584;23;20135;-76
2023/05/22 04:31:26;;;;;;;39.00;31.38;;;;;;;13.46;96.79;101345.81;6154465;23;20012;-74
2023/05/22 04:33:53;;;;;;;42.47;33.00;;;;;;;13.48;96.66;101339.66;6154962;23;20013;-77
2023/05/22 04:36:21;;;;;;;40.40;31.73;;;;;;;13.49;96.42;101340.53;6156707;23;20025;-77
2023/05/22 04:38:47;;;;;;;38.35;31.83;;;;;;;13.55;96.31;101347.44;6132926;23;20319;-76
2023/05/22 04:41:16;;;;;;;42.50;33.15;;;;;;;13.49;96.40;101354.56;6106461;23;20012;-76
2023/05/22 04:43:42;;;;;;;42.88;33.65;;;;;;;13.50;96.84;101344.88;6131642;23;20019;-76
2023/05/22 04:46:08;;;;;;;42.70;32.88;;;;;;;13.49;96.21;101353.69;6131401;23;20027;-80
2023/05/22 04:48:35;;;;;;;44.95;34.17;;;;;;;13.47;96.50;101361.59;6130024;23;20009;-80
2023/05/22 04:51:01;;;;;;;44.08;34.63;;;;;;;13.50;96.28;101358.03;6130391;23;20104;-79
2023/05/22 04:53:27;;;;;;;44.53;35.38;;;;;;;13.44;96.34;101356.38;6131199;23;20098;-80
2023/05/22 04:55:53;;;;;;;46.40;35.33;;;;;;;13.43;96.44;101362.56;6105450;23;20005;-77
2023/05/22 04:58:19;;;;;;;49.33;35.35;;;;;;;13.44;96.24;101369.53;6131801;23;20020;-77
2023/05/22 05:00:44;;;;;;;52.67;34.15;;;;;;;13.44;95.95;101374.81;6157551;23;20084;-81
2023/05/22 05:03:10;;;;;;;49.17;36.80;;;;;;;13.38;96.84;101376.69;6133993;23;20096;-78
2023/05/22 05:05:35;;;;;;;49.58;37.03;;;;;;;13.30;96.82;101376.75;6134460;23;20012;-79
2023/05/22 05:08:01;;;;;;;53.38;36.95;;;;;;;13.24;97.44;101364.53;6109618;23;20008;-79
2023/05/22 05:10:26;;;;;;;49.42;36.10;;;;;;;13.23;97.54;101377.72;6133272;23;20020;-79
2023/05/22 05:12:52;;;;;;;47.58;37.45;;;;;;;13.23;97.48;101378.63;6133355;23;20028;-79
2023/05/22 05:15:17;;;;;;;53.58;37.05;;;;;;;13.23;97.54;101372.47;6133194;23;20071;-80
2023/05/22 05:17:43;;;;;;;51.67;37.80;;;;;;;13.24;97.74;101377.69;6157801;23;20428;-79
2023/05/22 05:20:09;;;;;;;49.22;35.20;;;;;;;13.27;97.59;101380.28;6132724;23;20039;-80
2023/05/22 05:22:36;;;;;;;48.83;37.58;;;;;;;13.21;98.08;101380.38;6132880;23;20099;-80
2023/05/22 05:25:03;;;;;;;53.53;36.85;;;;;;;13.22;97.51;101373.38;6133588;23;20424;-79
2023/05/22 05:27:28;;;;;;;46.55;36.35;;;;;;;13.27;97.64;101385.53;6134298;23;20009;-79
2023/05/22 05:29:53;;;;;;;57.67;39.50;;;;;;;13.23;98.23;101386.50;6132791;23;20398;-80
2023/05/22 05:32:19;;;;;;;49.20;35.85;;;;;;;13.21;98.53;101374.25;6132213;23;20054;-79
2023/05/22 05:34:45;;;;;;;51.88;37.08;;;;;;;13.22;98.00;101378.63;6131955;23;20327;-81
2023/05/22 05:37:10;;;;;;;55.85;37.42;;;;;;;13.17;98.32;101376.94;6132675;23;20020;-75
2023/05/22 05:39:36;;;;;;;50.13;37.15;;;;;;;13.23;98.42;101381.25;6107177;23;20096;-75
2023/05/22 05:42:01;;;;;;;53.67;37.88;;;;;;;13.22;98.79;101387.38;6132377;23;20339;-76
2023/05/22 05:44:27;;;;;;;54.92;36.65;;;;;;;13.24;98.28;101390.00;6131772;23;20036;-75
2023/05/22 05:46:53;;;;;;;54.75;37.17;;;;;;;13.22;98.86;101389.16;6133947;23;20036;-76
2023/05/22 05:49:19;;;;;;;51.97;38.30;;;;;;;13.30;98.75;101389.91;6109088;23;20009;-76
2023/05/22 05:51:44;;;;;;;61.88;39.90;;;;;;;13.33;98.86;101389.84;6132978;23;20012;-75
2023/05/22 05:54:10;;;;;;;59.33;38.10;;;;;;;13.37;98.31;101396.00;6133189;23;20013;-75
2023/05/22 05:56:35;;;;;;;58.67;38.53;;;;;;;13.39;98.37;101397.72;6157680;23;20013;-75
2023/05/22 05:59:01;;;;;;;60.22;38.95;;;;;;;13.41;98.96;101395.06;6133686;23;20017;-76
2023/05/22 06:01:26;;;;;;;56.25;38.10;;;;;;;13.45;98.80;101400.25;6158097;23;20469;-76
2023/05/22 06:03:52;;;;;;;68.63;38.17;;;;;;;13.49;98.50;101391.41;6132951;23;20020;-75
2023/05/22 06:06:17;;;;;;;57.75;39.65;;;;;;;13.58;98.94;101402.72;6132192;23;20419;-76
2023/05/22 06:08:43;;;;;;;53.42;37.85;;;;;;;13.58;98.89;101390.41;6132739;23;20168;-75
2023/05/22 06:11:08;;;;;;;64.97;39.38;;;;;;;13.63;99.73;101399.13;6132271;23;20009;-76
2023/05/22 06:13:34;;;;;;;74.32;41.53;;;;;;;13.67;100.00;101400.78;6132738;23;20021;-76
2023/05/22 06:16:00;;;;;;;57.38;38.78;;;;;;;13.75;99.08;101397.16;6157748;23;20092;-75
2023/05/22 06:18:25;;;;;;;66.85;37.40;;;;;;;13.77;98.97;101398.88;6133030;23;20017;-76
2023/05/22 06:20:52;;;;;;;60.78;38.58;;;;;;;13.88;98.85;101397.81;6157292;23;20012;-75
2023/05/22 06:23:17;;;;;;;62.97;38.30;;;;;;;13.96;98.56;101401.22;6132846;23;20009;-75
2023/05/22 06:25:43;;;;;;;57.63;38.00;;;;;;;14.00;98.29;101397.63;6132720;23;20016;-75
2023/05/22 06:28:09;;;;;;;67.75;38.53;;;;;;;14.08;97.79;101405.38;6108701;23;20091;-75
2023/05/22 06:30:35;;;;;;;61.40;40.05;;;;;;;14.11;99.01;101406.22;6108555;23;20012;-75
2023/05/22 06:33:00;;;;;;;57.90;39.58;;;;;;;14.14;98.41;101414.06;6108102;23;20009;-76
2023/05/22 06:35:26;;;;;;;61.00;39.35;;;;;;;14.19;98.27;101414.88;6133067;23;20523;-75
2023/05/22 06:37:52;;;;;;;58.53;40.17;;;;;;;14.22;98.24;101408.66;6108185;23;20108;-75
2023/05/22 06:40:17;;;;;;;68.57;41.60;;;;;;;14.27;98.22;101412.09;6131826;23;20012;-75
2023/05/22 06:42:43;;;;;;;64.13;41.47;;;;;;;14.33;98.40;101421.66;6132791;23;20009;-75
2023/05/22 06:45:09;;;;;;;55.05;38.83;;;;;;;14.38;97.71;101423.31;6132904;23;20009;-75
2023/05/22 06:47:35;;;;;;;57.13;38.45;;;;;;;14.41;98.23;101413.59;6157579;23;20125;-75
2023/05/22 06:50:00;;;;;;;57.65;39.13;;;;;;;14.48;98.46;101423.13;6132355;23;20032;-76
2023/05/22 06:52:26;;;;;;;51.80;38.28;;;;;;;14.61;98.12;101429.03;6132377;23;20048;-76
2023/05/22 06:54:51;;;;;;;51.15;37.22;;;;;;;14.72;97.49;101427.09;6107422;23;20017;-75
2023/05/22 06:57:17;;;;;;;50.33;36.83;;;;;;;14.82;97.92;101433.06;6157477;23;20335;-74
2023/05/22 06:59:45;;;;;;;50.25;36.53;;;;;;;14.90;96.95;101426.72;6132959;23;20096;-75
2023/05/22 07:02:11;;;;;;;50.55;36.00;;;;;;;15.04;96.77;101426.47;6156714;23;20001;-75
2023/05/22 07:04:36;;;;;;;48.42;36.00;;;;;;;15.11;95.11;101428.97;6183588;23;20012;-75
2023/05/22 07:07:01;;;;;;;47.17;36.75;;;;;;;15.14;95.44;101434.16;6108044;23;20005;-76
2023/05/22 07:09:27;;;;;;;48.17;35.40;;;;;;;15.20;95.54;101448.13;6129415;23;20094;-74
2023/05/22 07:11:52;;;;;;;48.58;34.55;;;;;;;15.21;94.02;101443.69;6106289;23;20013;-75
2023/05/22 07:14:18;;;;;;;44.85;33.88;;;;;;;15.24;94.04;101449.78;6079349;23;20009;-76
2023/05/22 07:16:43;;;;;;;47.08;35.92;;;;;;;15.30;94.07;101447.91;6078619;23;20083;-75
2023/05/22 07:19:10;;;;;;;48.22;34.55;;;;;;;15.35;93.71;101451.31;6079174;23;20013;-75
2023/05/22 07:21:35;;;;;;;46.58;34.38;;;;;;;15.38;93.53;101454.75;6079565;23;20013;-76
2023/05/22 07:24:06;;;;;;;50.03;34.47;;;;;;;15.45;93.26;101454.63;6078426;23;20354;-76
2023/05/22 07:26:35;;;;;;;48.38;34.75;;;;;;;15.50;93.35;101456.28;6104043;23;20064;-76
2023/05/22 07:29:01;;;;;;;49.53;34.22;;;;;;;15.59;93.27;101456.06;6127598;23;20021;-76
2023/05/22 07:31:27;;;;;;;48.55;34.25;;;;;;;15.65;92.55;101454.19;6127700;23;20001;-75
2023/05/22 07:33:52;;;;;;;45.53;33.17;;;;;;;15.75;93.28;101455.69;6080024;23;20012;-75
2023/05/22 07:36:19;;;;;;;49.53;35.20;;;;;;;15.86;93.22;101458.09;6102583;23;20013;-76
2023/05/22 07:38:45;;;;;;;53.63;37.50;;;;;;;15.80;91.84;101460.91;6103223;23;20016;-76
2023/05/22 07:41:11;;;;;;;55.70;36.20;;;;;;;15.84;91.78;101459.94;6102747;23;20014;-76
2023/05/22 07:43:36;;;;;;;53.53;35.72;;;;;;;15.94;91.50;101459.66;6103195;23;20410;-76
2023/05/22 07:46:01;;;;;;;47.97;33.80;;;;;;;16.05;90.90;101458.56;6078756;23;20009;-75
2023/05/22 07:48:27;;;;;;;50.22;33.88;;;;;;;15.98;90.47;101462.25;6079094;23;20105;-77
2023/05/22 07:50:53;;;;;;;47.67;35.20;;;;;;;16.12;92.23;101460.13;6079058;23;20321;-77
2023/05/22 07:53:18;;;;;;;43.78;33.08;;;;;;;16.15;90.72;101465.34;6102553;23;20389;-76
2023/05/22 07:55:44;;;;;;;50.75;33.85;;;;;;;16.27;90.50;101459.72;6078803;23;20019;-76
2023/05/22 07:58:10;;;;;;;47.78;33.20;;;;;;;16.25;88.67;101466.84;6079480;23;20014;-76
2023/05/22 08:00:35;;;;;;;47.83;33.13;;;;;;;16.41;89.69;101469.97;6079584;23;20088;-77
2023/05/22 08:03:01;;;;;;;48.50;33.13;;;;;;;16.49;89.37;101468.88;6103270;23;20051;-77
2023/05/22 08:05:26;;;;;;;51.45;33.72;;;;;;;16.55;88.58;101464.31;6103427;23;20009;-76
2023/05/22 08:07:52;;;;;;;50.65;34.28;;;;;;;16.61;88.69;101465.94;6079105;23;20017;-77
2023/05/22 08:10:18;;;;;;;49.20;33.08;;;;;;;16.92;89.08;101467.75;6101790;23;20342;-77
2023/05/22 08:12:44;;;;;;;47.88;33.40;;;;;;;17.03;87.33;101475.38;6139839;23;20028;-77
2023/05/22 08:15:10;;;;;;;49.20;33.20;;;;;;;17.12;86.28;101470.72;6131585;23;20013;-76
2023/05/22 08:17:35;;;;;;;47.63;34.08;;;;;;;17.34;87.75;101455.94;6132670;23;20039;-77
2023/05/22 08:20:03;;;;;;;49.15;33.03;;;;;;;17.46;86.44;101459.06;6108040;23;20009;-77
2023/05/22 08:22:29;;;;;;;49.67;34.28;;;;;;;17.60;84.64;101460.47;6132659;23;20009;-76
2023/05/22 08:24:55;;;;;;;51.22;35.67;;;;;;;17.96;86.56;101460.22;6107485;23;20024;-77
2023/05/22 08:27:21;;;;;;;46.45;34.08;;;;;;;18.02;83.58;101462.66;6132950;23;20092;-78
2023/05/22 08:29:47;;;;;;;46.45;32.63;;;;;;;17.89;81.85;101462.16;6107929;23;20039;-75
2023/05/22 08:32:13;;;;;;;47.33;32.80;;;;;;;18.03;83.56;101455.56;6105812;23;20107;-75
2023/05/22 08:34:42;;;;;;;44.33;33.08;;;;;;;17.99;81.68;101458.31;6108489;23;20028;-75
2023/05/22 08:37:08;;;;;;;47.45;33.80;;;;;;;18.32;84.37;101454.59;6109891;23;20008;-76
2023/05/22 08:39:34;;;;;;;49.20;32.33;;;;;;;18.41;81.90;101448.09;6109781;23;20067;-75
2023/05/22 08:42:02;;;;;;;44.47;33.60;;;;;;;18.62;81.82;101452.66;6133961;23;20438;-75
2023/05/22 08:44:27;;;;;;;43.58;33.53;;;;;;;18.72;81.29;101460.28;6157839;23;20009;-74
2023/05/22 08:46:55;;;;;;;44.55;33.28;;;;;;;18.88;80.47;101458.84;6107978;23;20016;-75
2023/05/22 08:49:21;;;;;;;42.90;32.28;;;;;;;18.73;79.01;101464.66;6134882;23;20414;-75
2023/05/22 08:51:52;;;;;;;42.03;32.33;;;;;;;18.93;80.72;101456.84;6133039;23;20020;-75
2023/05/22 08:54:20;;;;;;;39.30;31.35;;;;;;;19.29;80.26;101464.38;6158171;23;20005;-75
2023/05/22 08:56:48;;;;;;;41.85;31.90;;;;;;;19.35;79.43;101464.16;6158872;23;20012;-75
2023/05/22 08:59:14;;;;;;;44.03;34.72;;;;;;;19.51;78.77;101468.84;6158717;23;20005;-75
2023/05/22 09:01:40;;;;;;;45.40;34.13;;;;;;;19.69;78.77;101464.59;6134304;23;20005;-75
2023/05/22 09:04:05;;;;;;;46.40;34.45;;;;;;;19.55;77.53;101479.31;6134481;23;20013;-75
2023/05/22 09:06:31;;;;;;;46.15;35.95;;;;;;;19.62;76.10;101476.41;6133896;23;20005;-74
2023/05/22 09:08:58;;;;;;;43.45;34.58;;;;;;;19.65;76.36;101465.66;6109581;23;20008;-74
2023/05/22 09:11:23;;;;;;;43.70;34.95;;;;;;;19.94;77.84;101461.84;6157841;23;20012;-75
2023/05/22 09:13:50;;;;;;;41.80;34.03;;;;;;;19.92;74.87;101469.00;6133847;23;20024;-75
2023/05/22 09:16:18;;;;;;;44.40;35.22;;;;;;;20.25;75.69;101466.72;6109653;23;20431;-75
2023/05/22 09:18:44;;;;;;;48.28;35.88;;;;;;;20.15;74.27;101464.53;6158489;23;20084;-75
2023/05/22 09:21:12;;;;;;;42.95;34.28;;;;;;;20.46;73.69;101465.88;6157971;23;20385;-75
2023/05/22 09:23:38;;;;;;;40.78;32.13;;;;;;;20.50;73.69;101457.72;6158121;23;20004;-75
2023/05/22 09:26:03;;;;;;;42.10;33.00;;;;;;;20.63;72.50;101455.38;6133224;23;20348;-80
2023/05/22 09:28:35;;;;;;;44.72;31.50;;;;;;;20.78;72.88;101459.19;6134205;23;20308;-81
2023/05/22 09:31:02;;;;;;;43.67;32.13;;;;;;;20.91;73.29;101455.03;6134208;23;20459;-80
2023/05/22 09:33:29;;;;;;;52.75;34.50;;;;;;;20.90;72.92;101460.41;6158493;23;20052;-83
2023/05/22 09:35:54;;;;;;;40.10;33.95;;;;;;;21.06;73.23;101453.47;6133543;23;20381;-81
2023/05/22 09:38:29;;;;;;;42.33;31.42;;;;;;;21.17;71.62;101455.63;6134253;23;20087;-81
2023/05/22 09:40:55;;;;;;;43.53;33.15;;;;;;;21.29;72.88;101448.84;6133625;23;20087;-80
2023/05/22 09:43:25;;;;;;;38.63;30.23;;;;;;;21.50;70.56;101460.28;6133747;23;20035;-84
2023/05/22 09:45:59;;;;;;;37.45;29.65;;;;;;;21.53;70.16;101446.00;6134674;23;20281;-83
2023/05/22 09:48:25;;;;;;;41.97;30.88;;;;;;;21.62;70.51;101451.75;6158880;23;20119;-83
2023/05/22 09:50:53;;;;;;;38.20;31.30;;;;;;;21.72;69.71;101445.94;6158211;23;20005;-81
2023/05/22 09:53:24;;;;;;;41.13;33.00;;;;;;;21.86;69.97;101442.63;6133445;23;20013;-82
2023/05/22 09:55:51;;;;;;;36.13;29.85;;;;;;;21.87;69.01;101441.69;6158419;23;20001;-82
2023/05/22 09:58:18;;;;;;;39.90;28.73;;;;;;;21.74;68.58;101441.44;6134219;23;20005;-82
2023/05/22 10:00:45;;;;;;;39.03;30.08;;;;;;;21.79;69.76;101436.72;6158591;23;20024;-83
2023/05/22 10:03:11;;;;;;;39.90;31.13;;;;;;;21.80;68.81;101431.28;6158281;23;20005;-83
2023/05/22 10:05:42;;;;;;;36.80;30.17;;;;;;;21.68;69.58;101437.25;6110368;23;20019;-83
2023/05/22 10:08:14;;;;;;;35.88;31.40;;;;;;;21.91;70.09;101432.56;6157255;23;20509;-82
2023/05/22 10:10:41;;;;;;;35.20;29.92;;;;;;;22.11;69.23;101432.44;6157536;23;20361;-83
2023/05/22 10:13:08;;;;;;;42.15;31.35;;;;;;;22.12;69.88;101428.84;6133711;23;20507;-83
2023/05/22 10:15:34;;;;;;;43.00;30.08;;;;;;;22.11;68.53;101432.44;6133670;23;20017;-82
2023/05/22 10:18:00;;;;;;;40.28;31.92;;;;;;;22.13;68.75;101427.88;6109552;23;20431;-81
2023/05/22 10:20:28;;;;;;;34.40;29.40;;;;;;;22.39;68.49;101425.69;6133516;23;20079;-82
2023/05/22 10:22:55;;;;;;;35.42;27.98;;;;;;;22.29;67.37;101427.09;6184149;23;20454;-82
2023/05/22 10:25:21;;;;;;;42.00;29.77;;;;;;;22.33;66.28;101436.69;6133512;23;20454;-81
2023/05/22 10:27:50;;;;;;;35.90;30.20;;;;;;;22.55;68.74;101435.56;6133783;23;20008;-82
2023/05/22 10:30:38;;;;;;;41.00;29.37;;;;;;;22.69;68.57;101426.84;6158279;23;20335;-82
2023/05/22 10:33:16;;;;;;;41.22;29.70;;;;;;;22.62;66.35;101429.81;6158105;23;20036;-82
2023/05/22 10:35:47;;;;;;;39.83;28.65;;;;;;;22.67;67.16;101430.44;6158079;23;20040;-82
2023/05/22 10:38:39;;;;;;;36.30;27.35;;;;;;;22.60;66.35;101433.53;6158378;23;20020;-83
2023/05/22 10:41:05;;;;;;;34.58;28.25;;;;;;;22.56;66.78;101423.97;6131898;23;20132;-82
2023/05/22 10:43:31;;;;;;;37.13;28.23;;;;;;;22.73;65.72;101423.91;6158535;23;20046;-82
2023/05/22 10:46:05;;;;;;;31.65;25.52;;;;;;;22.67;63.90;101425.09;6134608;23;20009;-83
2023/05/22 10:48:45;;;;;;;32.53;26.60;;;;;;;22.63;65.90;101428.88;6158699;23;20312;-83
2023/05/22 10:51:15;;;;;;;;;;;;;;;22.85;65.54;101425.06;6159264;23;20034;-82
2023/05/22 10:53:43;;;;;;;29.35;24.83;;;;;;;22.78;64.46;101424.50;6134008;23;19908;-83
2023/05/22 10:56:14;;;;;;;34.15;26.73;;;;;;;22.80;63.67;101429.75;6158589;23;20009;-76
2023/05/22 10:58:43;;;;;;;30.90;25.15;;;;;;;22.88;62.94;101432.03;6157810;23;20084;-76
2023/05/22 11:01:11;;;;;;;32.20;24.85;;;;;;;22.96;62.78;101421.81;6167687;23;20021;-76
2023/05/22 11:04:03;;;;;;;32.00;25.48;;;;;;;23.10;63.22;101421.91;6158261;23;20005;-76
2023/05/22 11:06:31;;;;;;;33.13;24.77;;;;;;;23.03;63.59;101420.53;6150457;23;20285;-76
2023/05/22 11:08:58;;;;;;;33.75;27.83;;;;;;;23.30;63.34;101415.47;6157125;23;20100;-76
2023/05/22 11:11:25;;;;;;;37.15;30.92;;;;;;;23.32;63.67;101420.75;6133038;23;20308;-76